Tallahassee, Florida
Current Conditions -  °F | °C
As of 9:53 PM on Monday 26 Jan 2015 (Local Time) from KTLH Reporting Station
Clear Clear  
Wind Chill:   Ceiling: Unl
Heat Index:   Visibility: 10mi
Dew Point:   Wind: 3mph
Humidity: 65%   Direction: 280°W
Pressure: 30"   Gusts: NA
Location:  30.44°N, 84.28°W
Report Text: KTLH 270253Z 28003KT 10SM CLR 07/01 A3000 RMK AO2 SLP158 T00670006 50012 $
Loading
Personal Weather Stations






























Interactive Weather Map New forecast layout! Learn more

10-Day Weather Forecast

Advertisements
Track Severe Weather on mobile